Time;durP1;ratioP1;P1;durP2;ratioP2;P2;SDS_P1;SDS_P2;PMS_P1;PMS_P2;Temp;Humidity;BMP_temperature;BMP_pressure;BME280_temperature;BME280_humidity;BME280_pressure;Samples;Min_cycle;Max_cycle;Signal;HPM_P1;HPM_P2
2021/08/06 00:01:30;;;;;;;1.13;1.02;;;;;;;;;;4889405;29;20080;-67
2021/08/06 00:03:56;;;;;;;0.63;0.63;;;;;;;;;;4878156;29;20091;-67
2021/08/06 00:06:38;;;;;;;1.48;0.90;;;;;;;;;;4878167;29;20053;-67
2021/08/06 00:09:05;;;;;;;1.20;0.82;;;;;;;;;;4886958;29;20075;-67
2021/08/06 00:11:32;;;;;;;1.15;0.80;;;;;;;;;;4880604;29;20147;-68
2021/08/06 00:13:59;;;;;;;2.30;1.20;;;;;;;;;;4881591;29;20477;-67
2021/08/06 00:16:26;;;;;;;2.75;1.05;;;;;;;;;;4895571;29;20084;-67
2021/08/06 00:18:52;;;;;;;0.70;0.70;;;;;;;;;;4896420;29;20408;-67
2021/08/06 00:21:19;;;;;;;0.80;0.80;;;;;;;;;;4896632;29;20113;-67
2021/08/06 00:23:46;;;;;;;0.90;0.70;;;;;;;;;;4896687;29;20092;-67
2021/08/06 00:26:13;;;;;;;3.05;1.17;;;;;;;;;;4897115;29;20099;-67
2021/08/06 00:28:40;;;;;;;1.95;1.05;;;;;;;;;;4896873;29;20056;-67
2021/08/06 00:31:07;;;;;;;1.80;0.82;;;;;;;;;;4896456;29;20091;-67
2021/08/06 00:33:34;;;;;;;0.98;0.90;;;;;;;;;;4897651;29;20055;-67
2021/08/06 00:36:00;;;;;;;1.02;0.93;;;;;;;;;;4905442;29;20073;-67
2021/08/06 00:38:27;;;;;;;1.98;0.95;;;;;;;;;;4909253;29;20053;-66
2021/08/06 00:40:53;;;;;;;2.00;1.20;;;;;;;;;;4912997;29;20059;-66
2021/08/06 00:43:20;;;;;;;1.17;0.88;;;;;;;;;;4916495;29;20079;-67
2021/08/06 00:45:47;;;;;;;2.90;1.23;;;;;;;;;;4904125;29;20053;-67
2021/08/06 00:48:13;;;;;;;1.20;1.10;;;;;;;;;;4883129;29;20060;-66
2021/08/06 00:50:40;;;;;;;1.50;1.15;;;;;;;;;;4898825;29;20084;-67
2021/08/06 00:53:07;;;;;;;1.30;1.15;;;;;;;;;;4899646;29;20091;-67
2021/08/06 00:55:35;;;;;;;2.63;1.00;;;;;;;;;;4899949;29;20095;-67
2021/08/06 00:58:01;;;;;;;1.73;0.95;;;;;;;;;;4899818;29;20095;-67
2021/08/06 01:00:28;;;;;;;2.10;1.02;;;;;;;;;;4900078;29;20099;-67
2021/08/06 01:03:02;;;;;;;1.33;0.98;;;;;;;;;;4899515;29;20408;-66
2021/08/06 01:05:31;;;;;;;1.98;0.80;;;;;;;;;;4898629;29;20053;-66
2021/08/06 01:08:10;;;;;;;1.70;0.93;;;;;;;;;;4898691;29;20095;-66
2021/08/06 01:10:49;;;;;;;1.77;0.82;;;;;;;;;;4891980;29;20077;-66
2021/08/06 01:13:17;;;;;;;2.60;0.98;;;;;;;;;;4879394;29;20497;-66
2021/08/06 01:15:52;;;;;;;1.73;1.00;;;;;;;;;;4880070;29;20049;-65
2021/08/06 01:18:19;;;;;;;1.10;1.00;;;;;;;;;;4903920;29;20037;-67
2021/08/06 01:20:49;;;;;;;1.02;0.93;;;;;;;;;;4906234;29;20053;-67
2021/08/06 01:23:30;;;;;;;0.73;0.73;;;;;;;;;;4905337;29;20032;-66
2021/08/06 01:26:09;;;;;;;1.45;0.90;;;;;;;;;;4906122;29;20053;-66
2021/08/06 01:28:41;;;;;;;0.88;0.88;;;;;;;;;;4904861;29;20060;-66
2021/08/06 01:31:09;;;;;;;0.77;0.77;;;;;;;;;;4904748;29;20037;-66
2021/08/06 01:44:53;;;;;;;3.25;0.98;;;;;;;;;;4880710;29;20048;-66
2021/08/06 01:47:27;;;;;;;1.75;0.95;;;;;;;;;;4882037;29;20049;-66
2021/08/06 01:50:00;;;;;;;1.35;1.25;;;;;;;;;;4884613;29;20092;-67
2021/08/06 01:52:59;;;;;;;3.25;1.48;;;;;;;;;;4905967;29;20037;-67
2021/08/06 01:55:32;;;;;;;1.35;1.20;;;;;;;;;;4905050;29;20037;-66
2021/08/06 01:57:59;;;;;;;1.13;0.82;;;;;;;;;;4904581;29;20057;-68
2021/08/06 02:00:26;;;;;;;1.52;1.27;;;;;;;;;;4895900;29;20049;-66
2021/08/06 02:02:52;;;;;;;4.25;0.95;;;;;;;;;;4883397;29;20088;-66
2021/08/06 02:05:22;;;;;;;1.30;1.20;;;;;;;;;;4897369;29;20049;-66
2021/08/06 02:07:49;;;;;;;1.50;1.10;;;;;;;;;;4898451;29;20500;-66
2021/08/06 02:10:16;;;;;;;1.13;0.85;;;;;;;;;;4898425;29;20136;-66
2021/08/06 02:12:43;;;;;;;2.15;1.00;;;;;;;;;;4897073;29;20095;-66
2021/08/06 02:15:10;;;;;;;2.38;1.20;;;;;;;;;;4891500;29;20113;-66
2021/08/06 02:17:37;;;;;;;3.45;1.10;;;;;;;;;;4878205;29;20081;-66
2021/08/06 02:20:04;;;;;;;2.00;1.10;;;;;;;;;;4878298;29;20084;-66
2021/08/06 02:22:32;;;;;;;1.85;1.15;;;;;;;;;;4878281;29;20495;-66
2021/08/06 02:24:58;;;;;;;1.20;1.10;;;;;;;;;;4878231;29;20080;-66
2021/08/06 02:27:25;;;;;;;1.15;0.95;;;;;;;;;;4878248;29;20088;-66
2021/08/06 02:29:51;;;;;;;2.00;1.02;;;;;;;;;;4863011;29;20465;-66
2021/08/06 02:32:18;;;;;;;1.92;1.15;;;;;;;;;;4862571;29;20092;-66
2021/08/06 02:34:45;;;;;;;1.23;0.93;;;;;;;;;;4881693;29;20084;-66
2021/08/06 02:37:11;;;;;;;2.97;1.10;;;;;;;;;;4878013;29;20088;-66
2021/08/06 02:39:38;;;;;;;1.50;1.20;;;;;;;;;;4879221;29;20080;-66
2021/08/06 02:42:05;;;;;;;1.83;1.08;;;;;;;;;;4879181;29;20080;-66
2021/08/06 02:44:35;;;;;;;1.70;1.00;;;;;;;;;;4878908;29;20080;-66
2021/08/06 02:47:03;;;;;;;2.17;1.00;;;;;;;;;;4878894;29;20096;-66
2021/08/06 02:49:33;;;;;;;2.35;0.95;;;;;;;;;;4879006;29;20103;-66
2021/08/06 02:52:01;;;;;;;1.90;0.82;;;;;;;;;;4879064;29;20088;-66
2021/08/06 02:54:27;;;;;;;1.23;1.10;;;;;;;;;;4878895;29;20087;-66
2021/08/06 02:56:54;;;;;;;1.38;1.00;;;;;;;;;;4878877;29;20068;-66
2021/08/06 02:59:20;;;;;;;1.00;0.90;;;;;;;;;;4878709;29;20140;-66
2021/08/06 03:01:47;;;;;;;1.05;1.00;;;;;;;;;;4891978;29;20090;-66
2021/08/06 03:04:14;;;;;;;1.65;1.15;;;;;;;;;;4897667;29;20059;-66
2021/08/06 03:06:40;;;;;;;1.77;0.95;;;;;;;;;;4897750;29;20112;-66
2021/08/06 03:09:07;;;;;;;1.17;1.08;;;;;;;;;;4891317;29;20089;-66
2021/08/06 03:11:33;;;;;;;1.88;1.10;;;;;;;;;;4878781;29;20103;-66
2021/08/06 03:14:00;;;;;;;2.60;1.27;;;;;;;;;;4878460;29;20097;-66
2021/08/06 03:16:27;;;;;;;1.98;1.50;;;;;;;;;;4878581;29;20492;-66
2021/08/06 03:18:53;;;;;;;1.58;1.33;;;;;;;;;;4912730;23;20119;-69
2021/08/06 03:21:20;;;;;;;1.27;1.17;;;;;;;;;;4896119;29;20080;-69
2021/08/06 03:23:46;;;;;;;2.28;1.20;;;;;;;;;;4897073;29;20460;-69
2021/08/06 03:26:13;;;;;;;1.50;0.98;;;;;;;;;;4896899;29;20098;-69
2021/08/06 03:28:39;;;;;;;2.60;1.50;;;;;;;;;;4897038;29;20100;-69
2021/08/06 03:31:06;;;;;;;1.35;1.20;;;;;;;;;;4896659;29;20085;-69
2021/08/06 03:33:33;;;;;;;1.10;1.00;;;;;;;;;;4896885;29;20095;-69
2021/08/06 03:35:59;;;;;;;1.15;1.00;;;;;;;;;;4897002;29;20091;-69
2021/08/06 03:38:26;;;;;;;1.33;1.20;;;;;;;;;;4906831;29;20036;-68
2021/08/06 03:40:53;;;;;;;2.72;1.02;;;;;;;;;;4894509;29;20108;-69
2021/08/06 03:43:21;;;;;;;1.60;1.17;;;;;;;;;;4877997;29;20052;-69
2021/08/06 03:45:48;;;;;;;1.35;1.10;;;;;;;;;;4880404;29;20132;-70
2021/08/06 03:48:14;;;;;;;1.35;1.20;;;;;;;;;;4902926;29;20066;-69
2021/08/06 03:50:42;;;;;;;1.52;1.30;;;;;;;;;;4902933;29;20048;-69
2021/08/06 03:53:09;;;;;;;2.67;1.88;;;;;;;;;;4902825;29;20037;-69
2021/08/06 03:55:35;;;;;;;3.05;1.50;;;;;;;;;;4902993;29;20048;-68
2021/08/06 03:58:03;;;;;;;2.95;1.40;;;;;;;;;;4902950;29;20033;-69
2021/08/06 04:00:38;;;;;;;1.45;1.17;;;;;;;;;;4918121;29;20036;-69
2021/08/06 04:03:06;;;;;;;2.15;1.23;;;;;;;;;;4921261;29;20048;-69
2021/08/06 04:05:33;;;;;;;2.13;1.67;;;;;;;;;;4921769;29;20037;-69
2021/08/06 04:08:05;;;;;;;1.50;1.38;;;;;;;;;;4921411;29;20051;-69
2021/08/06 04:10:31;;;;;;;1.20;1.05;;;;;;;;;;4921588;29;20073;-69
2021/08/06 04:12:58;;;;;;;1.15;1.05;;;;;;;;;;4921495;29;20065;-69
2021/08/06 04:15:25;;;;;;;1.52;1.30;;;;;;;;;;4921488;29;20052;-70
2021/08/06 04:17:51;;;;;;;2.10;1.10;;;;;;;;;;4920799;29;20037;-69
2021/08/06 04:20:18;;;;;;;2.03;1.20;;;;;;;;;;4924738;29;20115;-69
2021/08/06 04:22:45;;;;;;;1.70;1.00;;;;;;;;;;4925515;29;20049;-69
2021/08/06 04:25:12;;;;;;;2.72;1.23;;;;;;;;;;4925369;29;20055;-68
2021/08/06 04:27:38;;;;;;;1.55;1.33;;;;;;;;;;4920211;29;20033;-69
2021/08/06 04:30:09;;;;;;;3.17;1.63;;;;;;;;;;4906512;29;20044;-69
2021/08/06 04:32:36;;;;;;;1.38;1.27;;;;;;;;;;4899652;29;20059;-68
2021/08/06 04:35:03;;;;;;;1.90;1.40;;;;;;;;;;4904447;29;20044;-68
2021/08/06 04:37:29;;;;;;;2.05;1.10;;;;;;;;;;4905009;29;20057;-68
2021/08/06 04:39:56;;;;;;;3.08;1.20;;;;;;;;;;4904580;29;20065;-68
2021/08/06 04:42:22;;;;;;;4.82;1.23;;;;;;;;;;4904858;29;20066;-68
2021/08/06 04:44:49;;;;;;;1.83;1.10;;;;;;;;;;4905262;29;20068;-68
2021/08/06 04:47:15;;;;;;;1.48;1.20;;;;;;;;;;4908087;29;20040;-68
2021/08/06 04:49:42;;;;;;;2.80;1.10;;;;;;;;;;4921471;29;20063;-68
2021/08/06 04:52:08;;;;;;;1.55;1.25;;;;;;;;;;4913864;29;20060;-69
2021/08/06 04:54:35;;;;;;;4.15;1.63;;;;;;;;;;4902934;29;20053;-69
2021/08/06 04:57:02;;;;;;;2.35;1.40;;;;;;;;;;4893295;29;20424;-69
2021/08/06 04:59:28;;;;;;;4.80;1.88;;;;;;;;;;4896110;29;20044;-69
2021/08/06 05:01:55;;;;;;;6.80;3.50;;;;;;;;;;4901467;29;20053;-69
2021/08/06 05:04:21;;;;;;;4.60;2.90;;;;;;;;;;4903104;29;20077;-70
2021/08/06 05:06:48;;;;;;;3.38;2.60;;;;;;;;;;4906900;29;20044;-69
2021/08/06 05:09:14;;;;;;;3.30;1.95;;;;;;;;;;4900916;29;20052;-70
2021/08/06 05:11:41;;;;;;;3.10;1.85;;;;;;;;;;4899695;29;20092;-69
2021/08/06 05:14:07;;;;;;;2.92;2.33;;;;;;;;;;4899233;29;20084;-69
2021/08/06 05:16:34;;;;;;;4.43;2.45;;;;;;;;;;4899708;29;20052;-69
2021/08/06 05:19:00;;;;;;;2.70;2.40;;;;;;;;;;4899098;29;20106;-69
2021/08/06 05:21:27;;;;;;;1.88;1.67;;;;;;;;;;4899410;29;20112;-69
2021/08/06 05:23:54;;;;;;;2.40;2.20;;;;;;;;;;4899106;29;20092;-69
2021/08/06 05:26:20;;;;;;;4.25;2.30;;;;;;;;;;4899044;29;20570;-69
2021/08/06 05:28:47;;;;;;;3.35;2.35;;;;;;;;;;4899244;29;20091;-69
2021/08/06 05:31:13;;;;;;;3.85;2.42;;;;;;;;;;4898416;29;20095;-69
2021/08/06 05:33:40;;;;;;;3.08;2.58;;;;;;;;;;4898787;29;20535;-69
2021/08/06 05:36:06;;;;;;;2.33;2.13;;;;;;;;;;4898983;29;20080;-70
2021/08/06 05:38:33;;;;;;;2.70;2.50;;;;;;;;;;4898820;29;20151;-69
2021/08/06 05:41:01;;;;;;;3.22;2.53;;;;;;;;;;4898776;29;20092;-69
2021/08/06 05:43:28;;;;;;;3.30;2.58;;;;;;;;;;4898717;29;20056;-69
2021/08/06 05:45:54;;;;;;;5.28;2.63;;;;;;;;;;4898721;29;20084;-69
2021/08/06 05:48:21;;;;;;;4.00;2.80;;;;;;;;;;4898774;29;20139;-69
2021/08/06 05:50:47;;;;;;;3.88;2.75;;;;;;;;;;4887888;29;20091;-69
2021/08/06 05:53:14;;;;;;;5.65;3.92;;;;;;;;;;4887025;29;20539;-70
2021/08/06 05:55:41;;;;;;;4.45;2.67;;;;;;;;;;4891198;29;20490;-68
2021/08/06 05:58:07;;;;;;;3.58;2.25;;;;;;;;;;4891150;29;20143;-69
2021/08/06 06:00:34;;;;;;;5.07;3.13;;;;;;;;;;4888022;29;20135;-69
2021/08/06 06:03:00;;;;;;;3.78;2.28;;;;;;;;;;4901069;29;20056;-69
2021/08/06 06:05:27;;;;;;;4.53;2.53;;;;;;;;;;4883721;29;20132;-69
2021/08/06 06:07:53;;;;;;;3.10;2.80;;;;;;;;;;4883515;29;20464;-69
2021/08/06 06:10:21;;;;;;;2.60;2.40;;;;;;;;;;4884691;29;20737;-70
2021/08/06 06:12:49;;;;;;;4.30;2.70;;;;;;;;;;4886338;29;20503;-68
2021/08/06 06:15:16;;;;;;;3.60;2.65;;;;;;;;;;4885359;29;20099;-69
2021/08/06 06:17:42;;;;;;;3.05;2.22;;;;;;;;;;4884622;29;20132;-69
2021/08/06 06:20:10;;;;;;;3.90;2.42;;;;;;;;;;4881916;29;20053;-69
2021/08/06 06:22:37;;;;;;;2.38;2.03;;;;;;;;;;4885613;29;20083;-69
2021/08/06 06:25:04;;;;;;;3.30;2.08;;;;;;;;;;4882401;29;20402;-69
2021/08/06 06:27:30;;;;;;;4.88;2.30;;;;;;;;;;4884092;29;20135;-69
2021/08/06 06:29:57;;;;;;;5.88;1.90;;;;;;;;;;4882565;29;20152;-69
2021/08/06 06:32:23;;;;;;;3.20;2.00;;;;;;;;;;4884612;29;20110;-69
2021/08/06 06:34:50;;;;;;;3.25;2.10;;;;;;;;;;4884324;29;20128;-69
2021/08/06 06:37:16;;;;;;;5.75;3.00;;;;;;;;;;4884923;29;20422;-69
2021/08/06 06:39:43;;;;;;;7.32;4.18;;;;;;;;;;4882641;29;20084;-69
2021/08/06 06:42:09;;;;;;;3.67;2.95;;;;;;;;;;4882863;29;20139;-69
2021/08/06 06:44:36;;;;;;;6.40;3.63;;;;;;;;;;4882581;29;20091;-69
2021/08/06 06:47:03;;;;;;;4.68;3.08;;;;;;;;;;4887389;29;20151;-69
2021/08/06 06:49:29;;;;;;;3.67;2.35;;;;;;;;;;4887676;29;20088;-69
2021/08/06 06:51:56;;;;;;;2.38;2.15;;;;;;;;;;4889641;29;20156;-69
2021/08/06 06:54:23;;;;;;;2.88;2.50;;;;;;;;;;4887699;29;20081;-69
2021/08/06 06:56:49;;;;;;;2.67;2.25;;;;;;;;;;4886439;29;20092;-69
2021/08/06 06:59:16;;;;;;;3.97;2.45;;;;;;;;;;4885012;29;20141;-70
2021/08/06 07:01:42;;;;;;;4.88;3.00;;;;;;;;;;4881478;29;20508;-69
2021/08/06 07:04:16;;;;;;;2.85;2.50;;;;;;;;;;5074374;27;20397;-68
2021/08/06 07:06:42;;;;;;;2.92;2.55;;;;;;;;;;5065401;28;20353;-68
2021/08/06 07:09:13;;;;;;;3.00;2.22;;;;;;;;;;5061818;28;20048;-71
2021/08/06 07:11:40;;;;;;;4.97;2.20;;;;;;;;;;5064948;28;20096;-67
2021/08/06 07:14:06;;;;;;;2.33;2.15;;;;;;;;;;5065062;28;20515;-70
2021/08/06 07:16:33;;;;;;;4.70;2.63;;;;;;;;;;5065159;28;20044;-68
2021/08/06 07:18:59;;;;;;;3.30;1.92;;;;;;;;;;5065261;28;20507;-68
2021/08/06 07:21:26;;;;;;;4.15;1.50;;;;;;;;;;5063953;28;20127;-69
2021/08/06 07:23:53;;;;;;;2.17;1.40;;;;;;;;;;5059073;28;20048;-68
2021/08/06 07:26:19;;;;;;;1.35;1.25;;;;;;;;;;5055472;28;20529;-68
2021/08/06 07:28:46;;;;;;;1.40;1.30;;;;;;;;;;5060389;28;20076;-68
2021/08/06 07:31:13;;;;;;;4.15;1.17;;;;;;;;;;5064712;28;20167;-68
2021/08/06 07:33:40;;;;;;;1.50;1.40;;;;;;;;;;5064779;28;20079;-69
2021/08/06 07:36:06;;;;;;;2.33;1.40;;;;;;;;;;5064820;28;20110;-71
2021/08/06 07:38:33;;;;;;;4.10;1.50;;;;;;;;;;5064208;28;20107;-69
2021/08/06 07:40:59;;;;;;;4.13;1.73;;;;;;;;;;5064917;28;20135;-67
2021/08/06 07:43:26;;;;;;;1.50;1.40;;;;;;;;;;5064539;28;20072;-68
2021/08/06 07:45:52;;;;;;;3.75;1.90;;;;;;;;;;5061146;28;20881;-67
2021/08/06 07:48:19;;;;;;;1.73;1.60;;;;;;;;;;5057636;28;20084;-70
2021/08/06 07:50:45;;;;;;;2.28;1.50;;;;;;;;;;5059729;28;20041;-68
2021/08/06 07:53:12;;;;;;;1.50;1.40;;;;;;;;;;5063453;28;20045;-68
2021/08/06 07:55:39;;;;;;;2.08;1.48;;;;;;;;;;5064794;28;20079;-71
2021/08/06 07:58:05;;;;;;;3.33;1.45;;;;;;;;;;5063261;28;20053;-70
2021/08/06 08:00:32;;;;;;;3.38;1.70;;;;;;;;;;5064282;28;20084;-69
2021/08/06 08:02:58;;;;;;;4.13;1.92;;;;;;;;;;5063553;28;20045;-71
2021/08/06 08:05:25;;;;;;;3.63;1.90;;;;;;;;;;5063929;28;20076;-71
2021/08/06 08:07:52;;;;;;;3.75;1.85;;;;;;;;;;5063583;28;20044;-69
2021/08/06 08:10:22;;;;;;;9.23;2.13;;;;;;;;;;5063720;28;20060;-70
2021/08/06 08:13:07;;;;;;;2.30;2.10;;;;;;;;;;5061419;28;20045;-71
2021/08/06 08:15:33;;;;;;;2.47;1.70;;;;;;;;;;5051125;28;20508;-71
2021/08/06 08:18:00;;;;;;;3.08;2.22;;;;;;;;;;5050641;28;20167;-72
2021/08/06 08:20:26;;;;;;;4.78;2.38;;;;;;;;;;5050469;28;20072;-73
2021/08/06 08:22:53;;;;;;;4.10;2.35;;;;;;;;;;5050858;28;20053;-73
2021/08/06 08:25:19;;;;;;;4.90;2.17;;;;;;;;;;5050008;28;20084;-71
2021/08/06 08:27:46;;;;;;;4.80;1.63;;;;;;;;;;5050584;28;20080;-68
2021/08/06 08:30:13;;;;;;;1.80;1.27;;;;;;;;;;5045403;28;20050;-68
2021/08/06 08:32:40;;;;;;;2.90;1.45;;;;;;;;;;5045878;28;20045;-67
2021/08/06 08:35:07;;;;;;;2.63;1.23;;;;;;;;;;5052360;28;20076;-67
2021/08/06 08:37:34;;;;;;;1.70;1.10;;;;;;;;;;5052100;28;20416;-70
2021/08/06 08:40:00;;;;;;;2.47;1.20;;;;;;;;;;5052011;28;20053;-71
2021/08/06 08:42:29;;;;;;;1.88;0.88;;;;;;;;;;5050492;28;20044;-74
2021/08/06 08:45:00;;;;;;;1.92;0.95;;;;;;;;;;5052580;28;20243;-71
2021/08/06 08:47:28;;;;;;;1.50;1.00;;;;;;;;;;5050819;28;20111;-66
2021/08/06 08:49:55;;;;;;;1.95;1.08;;;;;;;;;;5052473;28;20186;-68
2021/08/06 08:52:21;;;;;;;0.95;0.80;;;;;;;;;;5051353;28;20076;-68
2021/08/06 08:54:48;;;;;;;1.33;0.80;;;;;;;;;;5051293;28;20079;-65
2021/08/06 08:57:22;;;;;;;1.80;0.82;;;;;;;;;;5019722;28;20477;-66
